Time;durP1;ratioP1;P1;durP2;ratioP2;P2;SDS_P1;SDS_P2;PMS_P1;PMS_P2;Temp;Humidity;BMP_temperature;BMP_pressure;BME280_temperature;BME280_humidity;BME280_pressure;Samples;Min_cycle;Max_cycle;Signal;HPM_P1;HPM_P2
2021/04/10 00:00:09;;;;;;;14.48;13.18;;;8.60;99.10;;;;;;5033986;28;20063;-67
2021/04/10 00:02:38;;;;;;;14.07;12.65;;;8.50;99.30;;;;;;5050776;28;20051;-67
2021/04/10 00:05:08;;;;;;;14.68;13.15;;;8.50;99.60;;;;;;5042241;28;20416;-67
2021/04/10 00:07:35;;;;;;;14.40;13.07;;;8.40;99.60;;;;;;5059473;28;20049;-67
2021/04/10 00:10:06;;;;;;;14.85;13.30;;;8.30;99.70;;;;;;5051528;28;20506;-67
2021/04/10 00:12:33;;;;;;;14.75;13.20;;;8.20;99.90;;;;;;5066802;28;20410;-67
2021/04/10 00:15:00;;;;;;;14.15;12.95;;;8.10;99.90;;;;;;5067496;28;20048;-67
2021/04/10 00:17:27;;;;;;;14.40;12.95;;;8.00;99.90;;;;;;5067939;28;20140;-67
2021/04/10 00:19:54;;;;;;;13.93;12.77;;;7.90;99.90;;;;;;5056751;28;20098;-67
2021/04/10 00:22:21;;;;;;;14.32;12.93;;;7.90;99.90;;;;;;5044662;28;20537;-67
2021/04/10 00:24:48;;;;;;;14.80;13.30;;;7.80;99.90;;;;;;5067339;28;20044;-67
2021/04/10 00:27:15;;;;;;;14.57;13.05;;;7.80;99.90;;;;;;5050313;28;20522;-67
2021/04/10 00:29:42;;;;;;;14.38;12.90;;;7.80;99.90;;;;;;5054677;28;20064;-67
2021/04/10 00:32:09;;;;;;;14.45;13.15;;;7.90;99.90;;;;;;5055967;28;20535;-67
2021/04/10 00:34:35;;;;;;;14.85;13.45;;;7.90;99.90;;;;;;5045703;28;20057;-67
2021/04/10 00:37:03;;;;;;;16.08;13.80;;;7.90;99.90;;;;;;5051177;28;20075;-65
2021/04/10 00:39:30;;;;;;;14.15;12.80;;;7.80;99.90;;;;;;5050861;28;20231;-67
2021/04/10 00:41:58;;;;;;;14.48;13.02;;;7.80;99.90;;;;;;5050595;28;20052;-67
2021/04/10 00:44:25;;;;;;;14.73;13.05;;;7.80;99.90;;;;;;5048047;28;20083;-67
2021/04/10 00:46:51;;;;;;;14.40;12.95;;;7.80;99.90;;;;;;5061594;28;20076;-67
2021/04/10 00:49:19;;;;;;;13.63;12.40;;;7.90;99.90;;;;;;5050006;28;20049;-67
2021/04/10 00:51:48;;;;;;;14.13;12.77;;;7.90;99.90;;;;;;5050586;28;20060;-67
2021/04/10 00:54:15;;;;;;;14.32;12.68;;;7.90;99.90;;;;;;5049333;28;20570;-67
2021/04/10 00:56:42;;;;;;;13.57;12.27;;;7.90;99.90;;;;;;5052291;28;20040;-67
2021/04/10 00:59:09;;;;;;;13.27;11.95;;;7.80;99.90;;;;;;5053336;28;20098;-67
2021/04/10 01:01:38;;;;;;;13.93;12.57;;;7.80;99.90;;;;;;5040992;28;20487;-67
2021/04/10 01:04:06;;;;;;;13.27;12.10;;;7.70;99.90;;;;;;5051941;28;20052;-67
2021/04/10 01:06:33;;;;;;;13.68;12.50;;;7.70;99.90;;;;;;5049651;28;20059;-67
2021/04/10 01:09:00;;;;;;;13.98;12.57;;;7.60;99.90;;;;;;5051855;28;20052;-66
2021/04/10 01:11:27;;;;;;;15.35;11.90;;;7.60;99.90;;;;;;5052501;28;20044;-67
2021/04/10 01:14:31;;;;;;;13.50;12.20;;;7.60;99.90;;;;;;5051708;28;20131;-67
2021/04/10 01:17:03;;;;;;;14.07;12.88;;;7.60;99.90;;;;;;5049888;28;20045;-67
2021/04/10 01:19:42;;;;;;;14.85;13.32;;;7.60;99.90;;;;;;5064982;28;20069;-67
2021/04/10 01:22:44;;;;;;;13.55;12.25;;;7.60;99.90;;;;;;5050721;28;20376;-67
2021/04/10 01:25:23;;;;;;;13.50;12.20;;;7.70;99.90;;;;;;5057970;28;20056;-67
2021/04/10 01:28:01;;;;;;;12.70;11.60;;;7.60;99.90;;;;;;5053123;28;20057;-67
2021/04/10 01:30:33;;;;;;;13.55;11.52;;;7.70;99.90;;;;;;5053362;28;20068;-67
2021/04/10 01:33:16;;;;;;;12.95;11.65;;;7.70;99.90;;;;;;5040438;28;20053;-67
2021/04/10 01:35:54;;;;;;;14.60;12.70;;;7.70;99.90;;;;;;5051904;28;20045;-67
2021/04/10 01:38:30;;;;;;;12.88;11.77;;;7.70;99.90;;;;;;5033361;28;20050;-67
2021/04/10 01:41:03;;;;;;;13.45;12.25;;;7.70;99.90;;;;;;5050636;28;20083;-67
2021/04/10 01:43:34;;;;;;;12.82;11.73;;;7.60;99.90;;;;;;5046496;28;20052;-67
2021/04/10 01:46:06;;;;;;;12.85;11.68;;;7.50;99.90;;;;;;5041993;28;20047;-67
2021/04/10 01:48:36;;;;;;;12.70;11.60;;;7.50;99.90;;;;;;5048807;28;20045;-67
2021/04/10 01:51:03;;;;;;;13.18;11.95;;;7.40;99.90;;;;;;5049328;28;20060;-67
2021/04/10 01:53:34;;;;;;;13.07;12.00;;;7.40;99.90;;;;;;5045784;28;20108;-67
2021/04/10 01:56:04;;;;;;;12.70;11.52;;;7.40;99.90;;;;;;5043243;28;20045;-67
2021/04/10 01:58:39;;;;;;;13.18;11.88;;;7.40;99.90;;;;;;5045677;28;20057;-67
2021/04/10 02:01:12;;;;;;;13.85;12.15;;;7.40;99.90;;;;;;5038023;28;20040;-67
2021/04/10 02:03:43;;;;;;;13.52;12.15;;;7.40;99.90;;;;;;5051908;28;20060;-67
2021/04/10 02:06:12;;;;;;;13.13;11.88;;;7.40;99.90;;;;;;5045507;28;20114;-67
2021/04/10 02:08:53;;;;;;;14.10;11.95;;;7.40;99.90;;;;;;5053487;28;20049;-67
2021/04/10 02:11:28;;;;;;;12.60;11.30;;;7.40;99.90;;;;;;5052118;28;20044;-67
2021/04/10 02:13:58;;;;;;;13.68;12.38;;;7.40;99.90;;;;;;5052216;28;20112;-67
2021/04/10 02:16:47;;;;;;;13.25;11.93;;;7.40;99.90;;;;;;5045041;28;20080;-67
2021/04/10 02:19:17;;;;;;;12.80;11.70;;;7.50;99.90;;;;;;5049254;28;20044;-67
2021/04/10 02:21:50;;;;;;;12.85;11.80;;;7.50;99.90;;;;;;5051135;28;20088;-67
2021/04/10 02:24:19;;;;;;;13.30;12.05;;;7.60;99.90;;;;;;5047694;28;20061;-67
2021/04/10 02:26:56;;;;;;;12.57;11.30;;;7.60;99.90;;;;;;5043434;28;20044;-67
2021/04/10 02:29:26;;;;;;;13.85;12.43;;;7.50;99.90;;;;;;5050935;28;20052;-66
2021/04/10 02:32:00;;;;;;;13.63;12.40;;;7.60;99.90;;;;;;5051572;28;20499;-66
2021/04/10 02:34:34;;;;;;;13.98;12.57;;;7.50;99.90;;;;;;5050828;28;20049;-67
2021/04/10 02:37:07;;;;;;;13.30;12.20;;;7.60;99.90;;;;;;5050119;28;20048;-67
2021/04/10 02:39:41;;;;;;;13.48;12.32;;;7.60;99.90;;;;;;5050722;28;20091;-67
2021/04/10 02:42:11;;;;;;;13.55;12.35;;;7.70;99.90;;;;;;5051174;28;20037;-66
2021/04/10 02:44:47;;;;;;;16.20;13.30;;;7.80;99.90;;;;;;5044390;28;20053;-67
2021/04/10 02:47:20;;;;;;;13.73;12.52;;;7.90;99.90;;;;;;5034246;28;20091;-67
2021/04/10 02:49:55;;;;;;;13.85;12.50;;;7.90;99.90;;;;;;5051504;28;20048;-67
2021/04/10 02:52:32;;;;;;;14.27;12.13;;;8.00;99.90;;;;;;5064976;28;20056;-66
2021/04/10 02:55:03;;;;;;;13.45;12.25;;;8.10;99.90;;;;;;5044139;28;20072;-66
2021/04/10 02:57:32;;;;;;;12.65;11.65;;;8.10;99.90;;;;;;5049483;28;20065;-67
2021/04/10 03:00:04;;;;;;;13.95;11.85;;;8.10;99.90;;;;;;5046156;28;20057;-67
2021/04/10 03:02:36;;;;;;;13.50;12.30;;;8.20;99.90;;;;;;5028729;28;20045;-67
2021/04/10 03:05:10;;;;;;;13.15;11.57;;;8.10;99.90;;;;;;5037668;28;20084;-67
2021/04/10 03:07:42;;;;;;;12.60;11.50;;;8.20;99.90;;;;;;5043704;28;20151;-67
2021/04/10 03:10:09;;;;;;;;;;;8.20;99.90;;;;;;5045140;28;20075;-67
2021/04/10 03:12:37;;;;;;;13.32;11.98;;;8.20;99.90;;;;;;5048001;28;20008;-67
2021/04/10 03:15:06;;;;;;;13.23;11.38;;;8.30;99.90;;;;;;5050346;28;20052;-67
2021/04/10 03:17:42;;;;;;;13.02;11.80;;;8.30;99.90;;;;;;5028277;28;20065;-67
2021/04/10 03:20:14;;;;;;;13.02;11.60;;;8.30;99.90;;;;;;5044994;28;20049;-67
2021/04/10 03:22:43;;;;;;;12.40;11.10;;;8.40;99.90;;;;;;5043917;28;20418;-67
2021/04/10 03:25:12;;;;;;;12.77;11.57;;;8.40;99.90;;;;;;5059782;28;20520;-67
2021/04/10 03:27:43;;;;;;;14.48;12.18;;;8.50;99.90;;;;;;5044205;28;20045;-67
2021/04/10 03:30:12;;;;;;;11.95;10.95;;;8.50;99.90;;;;;;5050979;28;20053;-67
2021/04/10 03:32:46;;;;;;;12.95;11.65;;;8.50;99.90;;;;;;5051224;28;20053;-67
2021/04/10 03:35:14;;;;;;;12.85;11.10;;;8.60;99.90;;;;;;5058617;28;20033;-67
2021/04/10 03:37:42;;;;;;;12.90;11.85;;;8.60;99.90;;;;;;5042548;28;20538;-67
2021/04/10 03:40:13;;;;;;;12.25;11.20;;;8.60;99.90;;;;;;5048173;28;20446;-66
2021/04/10 03:42:45;;;;;;;12.93;11.52;;;8.70;99.90;;;;;;5044496;28;20068;-67
2021/04/10 03:45:20;;;;;;;13.55;11.15;;;8.70;99.90;;;;;;5031904;28;20168;-67
2021/04/10 03:47:55;;;;;;;12.20;11.20;;;8.80;99.90;;;;;;5057321;28;20041;-66
2021/04/10 03:50:28;;;;;;;12.63;11.40;;;8.80;99.90;;;;;;5037559;28;20047;-67
2021/04/10 03:52:58;;;;;;;12.30;11.07;;;8.80;99.90;;;;;;5050098;28;20076;-67
2021/04/10 03:55:25;;;;;;;12.35;11.15;;;8.70;99.90;;;;;;5045067;28;20372;-67
2021/04/10 03:57:54;;;;;;;12.50;11.18;;;8.70;99.90;;;;;;5050675;28;20049;-67
2021/04/10 04:00:21;;;;;;;11.88;10.77;;;8.70;99.90;;;;;;5050860;28;20048;-67
2021/04/10 04:02:56;;;;;;;12.05;10.88;;;8.70;99.90;;;;;;5045840;28;20045;-67
2021/04/10 04:05:24;;;;;;;14.90;10.70;;;8.70;99.90;;;;;;5051344;28;20144;-67
2021/04/10 04:07:52;;;;;;;13.70;12.30;;;8.70;99.90;;;;;;5048885;28;20053;-67
2021/04/10 04:10:19;;;;;;;12.13;10.85;;;8.70;99.90;;;;;;5051052;28;20053;-67
2021/04/10 04:12:46;;;;;;;14.93;10.75;;;8.70;99.90;;;;;;5050409;28;20487;-67
2021/04/10 04:15:13;;;;;;;12.75;10.65;;;8.70;99.90;;;;;;5043332;28;20391;-66
2021/04/10 04:17:40;;;;;;;12.45;11.15;;;8.70;99.90;;;;;;5046969;28;20052;-67
2021/04/10 04:20:08;;;;;;;12.95;11.68;;;8.80;99.90;;;;;;5051194;28;20053;-66
2021/04/10 04:22:34;;;;;;;12.88;11.50;;;8.80;99.90;;;;;;5050037;28;20033;-67
2021/04/10 04:25:03;;;;;;;12.68;11.45;;;8.80;99.90;;;;;;5050156;28;20055;-67
2021/04/10 04:27:30;;;;;;;12.27;11.07;;;8.80;99.90;;;;;;5035045;28;20060;-67
2021/04/10 04:29:57;;;;;;;15.23;12.13;;;8.90;99.90;;;;;;5050510;28;20104;-67
2021/04/10 04:32:25;;;;;;;14.45;11.63;;;8.90;99.90;;;;;;5053344;28;20407;-67
2021/04/10 04:34:52;;;;;;;13.48;11.65;;;8.90;99.90;;;;;;5035539;28;20160;-67
2021/04/10 04:37:19;;;;;;;12.95;11.48;;;8.80;99.90;;;;;;5055096;28;20043;-67
2021/04/10 04:39:46;;;;;;;12.88;11.57;;;8.80;99.90;;;;;;5050376;28;20053;-67
2021/04/10 04:42:13;;;;;;;12.48;11.18;;;8.90;99.90;;;;;;5054155;28;20041;-67
2021/04/10 04:44:40;;;;;;;12.57;11.40;;;8.90;99.90;;;;;;5053529;28;20064;-66
2021/04/10 04:47:07;;;;;;;14.68;11.73;;;8.90;99.90;;;;;;5055015;28;20091;-66
2021/04/10 04:49:33;;;;;;;14.18;12.68;;;8.90;99.90;;;;;;5051067;28;20060;-66
2021/04/10 04:52:00;;;;;;;13.27;11.98;;;9.00;99.90;;;;;;5051686;28;20565;-67
2021/04/10 04:54:27;;;;;;;13.95;12.57;;;9.00;99.90;;;;;;5055000;28;20045;-66
2021/04/10 04:56:54;;;;;;;14.80;12.95;;;9.00;99.90;;;;;;5047092;28;20440;-67
2021/04/10 04:59:21;;;;;;;13.88;12.43;;;9.00;99.90;;;;;;5047123;28;20046;-66
2021/04/10 05:01:48;;;;;;;13.07;11.75;;;9.00;99.90;;;;;;5040073;28;20076;-67
2021/04/10 05:04:15;;;;;;;13.27;11.85;;;9.00;99.90;;;;;;5039927;28;20550;-67
2021/04/10 05:06:42;;;;;;;14.18;12.70;;;9.00;99.90;;;;;;5053724;28;20060;-67
2021/04/10 05:09:09;;;;;;;14.18;12.52;;;9.00;99.90;;;;;;5040660;28;20049;-67
2021/04/10 05:11:36;;;;;;;14.23;12.20;;;9.00;99.90;;;;;;5054275;28;20521;-67
2021/04/10 05:14:03;;;;;;;12.68;11.38;;;9.00;99.90;;;;;;5053478;28;20052;-67
2021/04/10 05:16:30;;;;;;;12.98;11.73;;;9.10;99.90;;;;;;5044986;28;20072;-67
2021/04/10 05:18:57;;;;;;;12.95;11.75;;;9.10;99.90;;;;;;5041852;28;20060;-66
2021/04/10 05:21:25;;;;;;;14.05;11.38;;;9.10;99.90;;;;;;5042099;28;20601;-66
2021/04/10 05:23:52;;;;;;;14.00;11.70;;;9.20;99.90;;;;;;5053447;28;20085;-66
2021/04/10 05:26:19;;;;;;;17.20;11.23;;;9.20;99.90;;;;;;5045638;28;20056;-66
2021/04/10 05:28:46;;;;;;;16.73;11.80;;;9.30;99.90;;;;;;5053766;28;20068;-66
2021/04/10 05:31:13;;;;;;;13.20;11.82;;;9.30;99.90;;;;;;5054102;28;20049;-66
2021/04/10 05:33:42;;;;;;;12.65;11.45;;;9.30;99.90;;;;;;5059141;28;20072;-66
2021/04/10 05:36:09;;;;;;;13.95;12.20;;;9.40;99.90;;;;;;5046594;28;20056;-66
2021/04/10 05:38:38;;;;;;;15.00;11.60;;;9.40;99.90;;;;;;5054073;28;20049;-66
2021/04/10 05:41:06;;;;;;;15.70;13.10;;;9.50;99.90;;;;;;5053717;28;20136;-68
2021/04/10 05:43:34;;;;;;;15.90;14.10;;;9.50;99.90;;;;;;5053159;28;20442;-68
2021/04/10 05:46:03;;;;;;;16.15;13.60;;;9.60;99.90;;;;;;5054580;28;20751;-68
2021/04/10 05:48:30;;;;;;;12.85;11.45;;;9.60;99.90;;;;;;5040305;28;20045;-68
2021/04/10 05:50:58;;;;;;;14.88;11.38;;;9.70;99.90;;;;;;5050724;28;20045;-67
2021/04/10 05:53:28;;;;;;;13.73;12.10;;;9.70;99.90;;;;;;5053607;28;20087;-67
2021/04/10 05:55:55;;;;;;;13.25;11.38;;;9.70;99.90;;;;;;5048603;28;20483;-67
2021/04/10 05:58:22;;;;;;;17.13;13.82;;;9.80;99.90;;;;;;5050463;28;20045;-68
2021/04/10 06:00:49;;;;;;;13.88;12.57;;;9.80;99.90;;;;;;5043824;28;20128;-66
2021/04/10 06:03:16;;;;;;;14.02;11.35;;;9.90;99.90;;;;;;5052800;28;20051;-67
2021/04/10 06:05:47;;;;;;;12.88;11.57;;;9.90;99.90;;;;;;5046573;28;20106;-68
2021/04/10 06:08:15;;;;;;;14.95;11.07;;;10.00;99.90;;;;;;5043197;28;20075;-67
2021/04/10 06:10:42;;;;;;;12.48;11.38;;;10.00;99.90;;;;;;5064491;28;20063;-67
2021/04/10 06:13:09;;;;;;;29.10;19.70;;;10.00;99.90;;;;;;5061223;28;20067;-68
2021/04/10 06:15:37;;;;;;;17.25;12.85;;;10.10;99.90;;;;;;5055858;28;20125;-67
2021/04/10 06:18:05;;;;;;;14.85;11.43;;;10.10;99.90;;;;;;5059728;28;20056;-67
2021/04/10 06:20:32;;;;;;;12.93;11.70;;;10.10;99.90;;;;;;5057172;28;20053;-66
2021/04/10 06:22:59;;;;;;;15.85;11.95;;;10.30;99.90;;;;;;5059640;28;20053;-66
2021/04/10 06:25:26;;;;;;;13.70;11.80;;;10.30;99.90;;;;;;5055565;28;20077;-67
2021/04/10 06:27:54;;;;;;;14.45;12.68;;;10.40;99.90;;;;;;5051870;28;20041;-67
2021/04/10 06:30:21;;;;;;;17.50;12.73;;;10.50;99.90;;;;;;5055907;28;20729;-67
2021/04/10 06:32:48;;;;;;;12.20;10.90;;;10.60;99.90;;;;;;5036367;28;20464;-67
2021/04/10 06:35:15;;;;;;;12.02;10.70;;;10.60;99.90;;;;;;5051084;28;20116;-67
2021/04/10 06:37:42;;;;;;;11.88;10.68;;;10.70;99.90;;;;;;5046251;28;20045;-67
2021/04/10 06:40:09;;;;;;;15.95;10.38;;;10.80;99.90;;;;;;5041907;28;20041;-67
2021/04/10 06:42:37;;;;;;;11.63;9.75;;;10.90;99.90;;;;;;5048397;28;20141;-67
2021/04/10 06:45:06;;;;;;;10.95;9.75;;;11.00;99.90;;;;;;5047277;28;20061;-68
2021/04/10 06:47:34;;;;;;;14.93;9.88;;;11.00;99.90;;;;;;5065433;28;20040;-68
2021/04/10 06:50:04;;;;;;;14.35;10.20;;;11.10;99.90;;;;;;5058901;28;20503;-68
2021/04/10 06:52:36;;;;;;;10.75;9.68;;;11.10;99.90;;;;;;5037825;28;20424;-68
2021/04/10 06:55:10;;;;;;;10.65;9.20;;;11.20;99.90;;;;;;5052758;28;20415;-68
2021/04/10 06:57:58;;;;;;;10.20;9.20;;;11.30;99.90;;;;;;5059319;28;20049;-67
2021/04/10 07:00:26;;;;;;;11.18;9.07;;;11.40;99.90;;;;;;5043053;28;20100;-67
2021/04/10 07:02:55;;;;;;;10.75;9.27;;;11.40;99.90;;;;;;5046035;28;20115;-67
2021/04/10 07:05:22;;;;;;;13.48;9.00;;;11.50;99.90;;;;;;5043328;28;20115;-68
2021/04/10 07:07:50;;;;;;;9.90;8.50;;;11.60;99.90;;;;;;5042583;28;20163;-68
2021/04/10 07:10:19;;;;;;;10.52;8.73;;;11.70;99.90;;;;;;5034930;28;20131;-67
2021/04/10 07:12:46;;;;;;;9.45;8.65;;;11.80;99.90;;;;;;5053793;28;20115;-67
2021/04/10 07:15:15;;;;;;;9.57;8.73;;;12.00;99.90;;;;;;5046222;28;20060;-66
2021/04/10 07:18:02;;;;;;;9.00;8.30;;;12.10;99.90;;;;;;5050528;28;20623;-67
2021/04/10 07:20:31;;;;;;;9.50;8.50;;;12.30;99.90;;;;;;5057181;28;20062;-67
2021/04/10 07:23:12;;;;;;;9.00;8.20;;;12.50;99.90;;;;;;5057882;28;20120;-67
2021/04/10 07:25:43;;;;;;;9.67;8.20;;;12.50;99.90;;;;;;5053497;28;20526;-68
2021/04/10 07:28:23;;;;;;;9.02;8.13;;;12.70;99.90;;;;;;5045965;28;20081;-67
2021/04/10 07:30:59;;;;;;;11.68;8.57;;;12.90;99.90;;;;;;5052283;28;20407;-66
2021/04/10 07:33:30;;;;;;;8.88;7.90;;;13.10;99.90;;;;;;5048635;28;20044;-66
2021/04/10 07:35:59;;;;;;;9.48;8.00;;;13.00;99.90;;;;;;5051538;28;20053;-68
2021/04/10 07:38:29;;;;;;;9.48;8.57;;;12.90;99.90;;;;;;5051506;28;20041;-67
2021/04/10 07:40:57;;;;;;;10.02;8.60;;;12.90;99.90;;;;;;5042840;28;20073;-68
2021/04/10 07:43:30;;;;;;;10.13;8.10;;;12.90;99.90;;;;;;5032434;28;20049;-68
2021/04/10 07:46:25;;;;;;;9.48;7.97;;;12.90;99.90;;;;;;5041500;28;20056;-66
2021/04/10 07:49:00;;;;;;;9.95;7.85;;;12.70;99.90;;;;;;5039839;28;20041;-68
2021/04/10 07:51:28;;;;;;;11.48;8.02;;;12.70;99.90;;;;;;5045408;28;20476;-67
2021/04/10 07:53:56;;;;;;;8.20;7.40;;;12.70;99.90;;;;;;5054620;28;20453;-68
2021/04/10 07:56:23;;;;;;;9.43;8.43;;;12.80;99.90;;;;;;5049182;28;20459;-68
2021/04/10 07:58:50;;;;;;;9.65;7.80;;;12.90;99.90;;;;;;5052194;28;20566;-68
2021/04/10 08:01:17;;;;;;;8.32;7.63;;;12.90;99.90;;;;;;5051543;28;20586;-68
2021/04/10 08:03:49;;;;;;;8.27;7.55;;;12.90;99.90;;;;;;5053911;28;20069;-67
2021/04/10 08:06:20;;;;;;;8.65;7.75;;;12.90;99.90;;;;;;5040262;28;20464;-68
2021/04/10 08:08:52;;;;;;;8.40;7.70;;;12.90;99.90;;;;;;5053452;28;20064;-67
2021/04/10 08:11:33;;;;;;;8.90;7.70;;;13.00;99.90;;;;;;5062367;28;20064;-68
2021/04/10 08:14:07;;;;;;;10.57;8.40;;;12.90;99.90;;;;;;5042316;28;20058;-66
2021/04/10 08:16:47;;;;;;;9.85;8.57;;;13.00;99.90;;;;;;5057552;28;20080;-69
2021/04/10 08:19:15;;;;;;;10.43;8.00;;;13.20;99.90;;;;;;5046909;28;20053;-69
2021/04/10 08:21:48;;;;;;;9.10;8.00;;;13.40;99.90;;;;;;5050562;28;20053;-68
2021/04/10 08:24:24;;;;;;;9.32;8.35;;;13.50;99.90;;;;;;5048587;28;20057;-67
2021/04/10 08:26:53;;;;;;;11.02;8.30;;;13.60;99.90;;;;;;5050689;28;20103;-68
2021/04/10 08:29:22;;;;;;;14.18;11.82;;;13.60;99.90;;;;;;5050514;28;20468;-69
2021/04/10 08:31:49;;;;;;;9.43;7.90;;;13.50;99.90;;;;;;5050360;28;20056;-68
2021/04/10 08:34:17;;;;;;;9.48;8.45;;;13.60;99.90;;;;;;5046501;28;20049;-69
2021/04/10 08:36:50;;;;;;;8.80;7.88;;;13.80;99.90;;;;;;5048987;28;20048;-68
2021/04/10 08:39:19;;;;;;;9.82;8.27;;;13.90;99.90;;;;;;5049683;28;20099;-68
2021/04/10 08:41:48;;;;;;;9.70;8.00;;;14.00;99.90;;;;;;5050202;28;20057;-68
2021/04/10 08:44:21;;;;;;;11.43;7.93;;;14.10;99.90;;;;;;5049596;28;20148;-69
2021/04/10 08:46:48;;;;;;;9.05;7.93;;;14.10;99.90;;;;;;5044049;28;20095;-68
2021/04/10 08:49:17;;;;;;;9.20;8.23;;;14.10;99.90;;;;;;5041839;28;20057;-68
2021/04/10 08:51:45;;;;;;;9.15;8.27;;;14.10;99.90;;;;;;5044419;28;20121;-68
2021/04/10 08:54:14;;;;;;;10.20;8.15;;;14.10;99.90;;;;;;5050387;28;20064;-68
2021/04/10 08:56:41;;;;;;;9.45;8.40;;;13.90;99.90;;;;;;5048631;28;20045;-67
2021/04/10 08:59:10;;;;;;;9.32;8.05;;;13.90;99.90;;;;;;5050292;28;20037;-68
2021/04/10 09:01:39;;;;;;;9.75;7.88;;;14.10;99.90;;;;;;5041866;28;20041;-69
2021/04/10 09:04:06;;;;;;;8.23;7.53;;;14.20;99.90;;;;;;5040720;28;20041;-67
2021/04/10 09:06:47;;;;;;;9.18;8.25;;;14.20;99.90;;;;;;5040742;28;20037;-69
2021/04/10 09:09:17;;;;;;;8.88;8.00;;;14.20;99.90;;;;;;5046075;28;20052;-68
2021/04/10 09:11:46;;;;;;;8.38;7.68;;;14.10;99.90;;;;;;5047228;28;20056;-68
2021/04/10 09:14:14;;;;;;;10.85;8.43;;;14.10;99.90;;;;;;5049232;28;20407;-68
2021/04/10 09:16:44;;;;;;;9.70;8.80;;;14.10;99.90;;;;;;5054374;28;20052;-67
2021/04/10 09:19:11;;;;;;;8.60;7.80;;;14.00;99.90;;;;;;5052748;28;20059;-68
2021/04/10 09:21:47;;;;;;;9.45;8.55;;;14.10;99.90;;;;;;5052802;28;20549;-68
2021/04/10 09:24:44;;;;;;;9.45;8.45;;;14.00;99.90;;;;;;5051934;28;20509;-68
2021/04/10 09:27:24;;;;;;;8.95;8.13;;;13.80;99.90;;;;;;5046496;28;20473;-69
2021/04/10 09:29:57;;;;;;;10.93;8.73;;;13.60;99.90;;;;;;5051114;28;20264;-68
2021/04/10 09:32:56;;;;;;;13.50;8.30;;;13.60;99.90;;;;;;5051465;28;20041;-67
2021/04/10 09:35:36;;;;;;;9.02;8.25;;;13.70;99.90;;;;;;5072214;28;20057;-68
2021/04/10 09:38:03;;;;;;;9.43;8.48;;;13.70;99.90;;;;;;5045293;28;20075;-67
2021/04/10 09:40:48;;;;;;;9.20;8.30;;;13.70;99.90;;;;;;5051621;28;20495;-67
2021/04/10 09:43:18;;;;;;;8.98;8.23;;;13.70;99.90;;;;;;5049347;28;20053;-67
2021/04/10 09:45:45;;;;;;;9.32;8.43;;;13.70;99.90;;;;;;5039543;28;20414;-67
2021/04/10 09:48:12;;;;;;;9.98;8.70;;;13.60;99.90;;;;;;5051878;28;20106;-67
2021/04/10 09:50:45;;;;;;;8.85;7.95;;;13.70;99.90;;;;;;5041823;28;20593;-67
2021/04/10 09:53:18;;;;;;;9.57;8.40;;;13.70;99.90;;;;;;5042759;28;20052;-68
2021/04/10 09:56:04;;;;;;;9.73;8.07;;;13.50;99.90;;;;;;5043866;28;20458;-68
2021/04/10 09:58:35;;;;;;;8.95;8.15;;;13.40;99.90;;;;;;5044749;28;20045;-67
2021/04/10 10:01:05;;;;;;;8.60;7.75;;;13.30;99.90;;;;;;5051319;28;20057;-67
2021/04/10 10:03:33;;;;;;;8.98;7.70;;;13.40;99.90;;;;;;5051428;28;20619;-66
2021/04/10 10:06:30;;;;;;;10.93;7.97;;;13.30;99.90;;;;;;5046095;28;20052;-66
2021/04/10 10:08:57;;;;;;;8.68;7.82;;;13.30;99.90;;;;;;5042798;28;20107;-66
2021/04/10 10:11:26;;;;;;;10.95;8.10;;;13.30;99.90;;;;;;5052113;28;20060;-66
2021/04/10 10:13:56;;;;;;;8.75;7.90;;;13.30;99.90;;;;;;5051097;28;20102;-66
2021/04/10 10:16:28;;;;;;;8.48;7.70;;;13.30;99.90;;;;;;5059411;28;20063;-67
2021/04/10 10:18:56;;;;;;;8.27;7.50;;;13.40;99.90;;;;;;5045327;28;20122;-66
2021/04/10 10:21:24;;;;;;;8.52;7.82;;;13.40;99.90;;;;;;5051113;28;20120;-65
2021/04/10 10:23:59;;;;;;;8.50;7.60;;;13.60;99.90;;;;;;5051217;28;20052;-65
2021/04/10 10:26:33;;;;;;;9.10;8.20;;;13.60;99.90;;;;;;5047595;28;20503;-67
2021/04/10 10:29:08;;;;;;;9.25;8.35;;;13.70;99.90;;;;;;5050084;28;20478;-66
2021/04/10 10:31:54;;;;;;;9.70;8.30;;;13.70;99.90;;;;;;5047040;28;20400;-66
2021/04/10 10:34:26;;;;;;;8.95;8.13;;;13.80;99.90;;;;;;5049648;28;20132;-66
2021/04/10 10:36:53;;;;;;;;;;;13.90;99.90;;;;;;5048944;28;20053;-67
2021/04/10 10:39:39;;;;;;;9.43;8.43;;;14.00;99.90;;;;;;5050648;28;20379;-66
2021/04/10 10:42:06;;;;;;;8.40;7.70;;;14.10;99.90;;;;;;5050623;28;20483;-67
2021/04/10 10:44:36;;;;;;;8.82;7.90;;;14.30;99.90;;;;;;5044940;28;20118;-68
2021/04/10 10:47:05;;;;;;;8.75;7.93;;;14.60;99.90;;;;;;5037396;28;20534;-67
2021/04/10 10:49:33;;;;;;;9.18;8.32;;;14.80;99.90;;;;;;5049705;28;20056;-66
2021/04/10 10:52:00;;;;;;;8.77;7.95;;;15.20;99.90;;;;;;5046780;28;20128;-67
2021/04/10 10:54:49;;;;;;;9.82;7.60;;;15.40;99.90;;;;;;5051609;28;20068;-67
2021/04/10 10:57:17;;;;;;;8.90;8.00;;;15.20;99.90;;;;;;5051232;28;20037;-65
2021/04/10 11:00:09;;;;;;;8.88;7.97;;;15.50;99.90;;;;;;5049958;28;20045;-67
2021/04/10 11:02:37;;;;;;;9.38;7.72;;;15.60;99.90;;;;;;5043092;28;20054;-66
2021/04/10 11:05:07;;;;;;;8.68;7.90;;;15.50;99.90;;;;;;5042861;28;20388;-67
2021/04/10 11:07:34;;;;;;;8.38;7.53;;;15.80;99.90;;;;;;5047500;28;20048;-67
2021/04/10 11:10:01;;;;;;;11.25;7.80;;;15.80;99.90;;;;;;5042006;28;20049;-67
2021/04/10 11:12:28;;;;;;;9.98;7.75;;;16.00;99.90;;;;;;5049563;28;20057;-65
2021/04/10 11:14:57;;;;;;;8.65;7.82;;;16.20;99.90;;;;;;5054926;28;20052;-67
2021/04/10 11:17:33;;;;;;;8.32;7.60;;;15.50;99.90;;;;;;5050670;28;20465;-66
2021/04/10 11:20:20;;;;;;;9.73;7.55;;;15.50;99.90;;;;;;5050837;28;20519;-65
2021/04/10 11:23:08;;;;;;;9.10;8.20;;;15.20;99.90;;;;;;5044096;28;20057;-67
2021/04/10 11:25:53;;;;;;;9.30;8.40;;;14.90;99.90;;;;;;5046953;28;20057;-66
2021/04/10 11:28:33;;;;;;;8.95;7.88;;;14.70;99.90;;;;;;5043118;28;20052;-67
2021/04/10 11:31:08;;;;;;;9.57;7.90;;;15.00;99.90;;;;;;5049431;28;20056;-65
2021/04/10 11:33:36;;;;;;;8.95;8.10;;;15.00;99.90;;;;;;5052743;28;20052;-67
2021/04/10 11:36:03;;;;;;;10.18;7.68;;;15.00;99.90;;;;;;5070859;28;20084;-66
2021/04/10 11:38:30;;;;;;;8.75;7.95;;;15.00;99.90;;;;;;5068465;28;20143;-68
2021/04/10 11:40:57;;;;;;;8.20;7.47;;;15.00;99.90;;;;;;5049314;28;20102;-66
2021/04/10 11:43:24;;;;;;;8.35;7.57;;;15.10;99.90;;;;;;5048888;28;20052;-68
2021/04/10 11:45:51;;;;;;;9.05;7.45;;;15.10;99.90;;;;;;5048001;28;20094;-68
2021/04/10 11:48:22;;;;;;;15.13;9.00;;;15.30;99.90;;;;;;5050486;28;20079;-66
2021/04/10 11:50:57;;;;;;;8.75;7.65;;;15.60;99.90;;;;;;5040093;28;20081;-67
2021/04/10 11:53:36;;;;;;;8.70;7.90;;;16.20;99.90;;;;;;5035730;28;20049;-67
2021/04/10 11:56:26;;;;;;;8.63;7.80;;;16.20;99.90;;;;;;5038166;28;20045;-66
2021/04/10 11:59:07;;;;;;;8.82;7.93;;;16.30;99.90;;;;;;5050347;28;20041;-67
2021/04/10 12:01:35;;;;;;;9.10;7.95;;;16.70;99.90;;;;;;5042490;28;20063;-67
2021/04/10 12:04:04;;;;;;;8.40;7.70;;;16.90;99.90;;;;;;5043506;28;20045;-68
2021/04/10 12:06:38;;;;;;;9.18;8.23;;;17.30;99.90;;;;;;5034806;28;20068;-65
2021/04/10 12:09:07;;;;;;;8.45;7.57;;;17.40;99.90;;;;;;5037777;28;20056;-67
2021/04/10 12:11:36;;;;;;;8.77;7.90;;;17.40;99.90;;;;;;5037601;28;20045;-67
2021/04/10 12:14:04;;;;;;;9.57;7.93;;;17.50;99.90;;;;;;5044948;28;20068;-67
2021/04/10 12:16:31;;;;;;;8.43;7.63;;;17.30;99.90;;;;;;5047289;28;20114;-67
2021/04/10 12:18:58;;;;;;;8.90;8.02;;;17.30;99.90;;;;;;5042570;28;20072;-65
2021/04/10 12:21:25;;;;;;;9.13;8.23;;;17.60;99.90;;;;;;5044473;28;20052;-67
2021/04/10 12:23:52;;;;;;;9.38;8.30;;;17.50;99.90;;;;;;5042689;28;20056;-67
2021/04/10 12:26:19;;;;;;;8.43;7.65;;;17.80;99.90;;;;;;5038738;28;20381;-68
2021/04/10 12:28:46;;;;;;;8.48;7.68;;;18.30;99.90;;;;;;5049436;28;20122;-66
2021/04/10 12:31:13;;;;;;;8.73;7.90;;;18.50;99.90;;;;;;5049376;28;20126;-68
2021/04/10 12:33:41;;;;;;;10.05;8.10;;;18.70;99.90;;;;;;5043513;28;20091;-69
2021/04/10 12:36:08;;;;;;;9.20;8.30;;;18.50;99.90;;;;;;5050521;28;20078;-68
2021/04/10 12:38:35;;;;;;;10.00;8.55;;;18.20;99.90;;;;;;5044920;28;20041;-66
2021/04/10 12:41:04;;;;;;;9.38;8.48;;;18.00;99.90;;;;;;5036581;28;20517;-67
2021/04/10 12:43:31;;;;;;;10.85;8.35;;;18.00;99.90;;;;;;5043456;28;20103;-67
2021/04/10 12:45:58;;;;;;;9.38;8.20;;;17.80;99.90;;;;;;5049517;28;20202;-67
2021/04/10 12:48:26;;;;;;;9.10;8.40;;;17.80;99.90;;;;;;5048583;28;20055;-67
2021/04/10 12:50:53;;;;;;;9.05;8.15;;;17.70;99.90;;;;;;5049504;28;20076;-68
2021/04/10 12:53:20;;;;;;;9.20;8.40;;;17.60;99.90;;;;;;5043936;28;20053;-68
2021/04/10 12:55:52;;;;;;;9.07;8.30;;;17.30;99.90;;;;;;5052331;28;20048;-68
2021/04/10 12:58:19;;;;;;;9.38;8.48;;;17.30;99.90;;;;;;5050275;28;20954;-68